sensor_id;sensor_type;location;lat;lon;timestamp;P1;durP1;ratioP1;P2;durP2;ratioP2
48853;SDS011;34673;52.808;17.856;2022-08-18T00:01:45;18.73;;;13.68;;
48853;SDS011;34673;52.808;17.856;2022-08-18T00:04:16;17.55;;;14.05;;
48853;SDS011;34673;52.808;17.856;2022-08-18T00:07:02;19.30;;;14.02;;
48853;SDS011;34673;52.808;17.856;2022-08-18T00:09:34;20.65;;;14.80;;
48853;SDS011;34673;52.808;17.856;2022-08-18T00:12:04;17.38;;;13.80;;
48853;SDS011;34673;52.808;17.856;2022-08-18T00:14:35;18.90;;;14.43;;
48853;SDS011;34673;52.808;17.856;2022-08-18T00:17:02;22.55;;;14.90;;
48853;SDS011;34673;52.808;17.856;2022-08-18T00:19:29;18.25;;;14.25;;
48853;SDS011;34673;52.808;17.856;2022-08-18T00:22:13;20.50;;;14.20;;
48853;SDS011;34673;52.808;17.856;2022-08-18T00:24:43;20.30;;;14.65;;
48853;SDS011;34673;52.808;17.856;2022-08-18T00:27:18;19.63;;;14.52;;
48853;SDS011;34673;52.808;17.856;2022-08-18T00:29:49;22.10;;;14.25;;
48853;SDS011;34673;52.808;17.856;2022-08-18T00:32:19;16.83;;;13.67;;
48853;SDS011;34673;52.808;17.856;2022-08-18T00:34:49;19.17;;;14.48;;
48853;SDS011;34673;52.808;17.856;2022-08-18T00:37:18;19.23;;;14.63;;
48853;SDS011;34673;52.808;17.856;2022-08-18T00:39:49;19.92;;;14.52;;
48853;SDS011;34673;52.808;17.856;2022-08-18T00:42:20;18.80;;;15.20;;
48853;SDS011;34673;52.808;17.856;2022-08-18T00:44:56;22.00;;;16.00;;
48853;SDS011;34673;52.808;17.856;2022-08-18T00:47:27;17.95;;;14.82;;
48853;SDS011;34673;52.808;17.856;2022-08-18T00:50:15;26.67;;;15.98;;
48853;SDS011;34673;52.808;17.856;2022-08-18T00:53:22;17.63;;;14.13;;
48853;SDS011;34673;52.808;17.856;2022-08-18T00:55:45;23.52;;;15.90;;
48853;SDS011;34673;52.808;17.856;2022-08-18T00:58:40;20.33;;;14.85;;
48853;SDS011;34673;52.808;17.856;2022-08-18T01:01:12;17.55;;;15.00;;
48853;SDS011;34673;52.808;17.856;2022-08-18T01:03:42;21.20;;;15.80;;
48853;SDS011;34673;52.808;17.856;2022-08-18T01:06:21;21.05;;;15.57;;
48853;SDS011;34673;52.808;17.856;2022-08-18T01:08:54;23.02;;;14.77;;
48853;SDS011;34673;52.808;17.856;2022-08-18T01:11:21;22.58;;;15.27;;
48853;SDS011;34673;52.808;17.856;2022-08-18T01:13:48;22.13;;;16.75;;
48853;SDS011;34673;52.808;17.856;2022-08-18T01:16:16;23.15;;;15.13;;
48853;SDS011;34673;52.808;17.856;2022-08-18T01:19:03;19.08;;;14.55;;
48853;SDS011;34673;52.808;17.856;2022-08-18T01:21:50;18.90;;;14.90;;
48853;SDS011;34673;52.808;17.856;2022-08-18T01:24:25;23.65;;;15.93;;
48853;SDS011;34673;52.808;17.856;2022-08-18T01:27:14;20.23;;;15.68;;
48853;SDS011;34673;52.808;17.856;2022-08-18T01:29:45;24.10;;;15.95;;
48853;SDS011;34673;52.808;17.856;2022-08-18T01:32:15;16.95;;;15.15;;
48853;SDS011;34673;52.808;17.856;2022-08-18T01:34:46;21.05;;;16.77;;
48853;SDS011;34673;52.808;17.856;2022-08-18T01:37:15;22.65;;;15.38;;
48853;SDS011;34673;52.808;17.856;2022-08-18T01:39:45;21.02;;;14.52;;
48853;SDS011;34673;52.808;17.856;2022-08-18T01:42:33;22.02;;;15.13;;
48853;SDS011;34673;52.808;17.856;2022-08-18T01:45:02;20.20;;;15.98;;
48853;SDS011;34673;52.808;17.856;2022-08-18T01:47:33;23.85;;;16.27;;
48853;SDS011;34673;52.808;17.856;2022-08-18T01:50:14;25.50;;;16.58;;
48853;SDS011;34673;52.808;17.856;2022-08-18T01:52:42;20.02;;;14.65;;
48853;SDS011;34673;52.808;17.856;2022-08-18T01:55:10;22.30;;;15.48;;
48853;SDS011;34673;52.808;17.856;2022-08-18T01:57:40;20.98;;;16.38;;
48853;SDS011;34673;52.808;17.856;2022-08-18T02:00:11;21.90;;;17.20;;
48853;SDS011;34673;52.808;17.856;2022-08-18T02:02:40;25.83;;;18.70;;
48853;SDS011;34673;52.808;17.856;2022-08-18T02:05:15;21.40;;;16.05;;
48853;SDS011;34673;52.808;17.856;2022-08-18T02:07:46;20.25;;;16.65;;
48853;SDS011;34673;52.808;17.856;2022-08-18T02:10:19;22.88;;;17.67;;
48853;SDS011;34673;52.808;17.856;2022-08-18T02:12:46;19.88;;;15.95;;
48853;SDS011;34673;52.808;17.856;2022-08-18T02:15:13;22.10;;;16.85;;
48853;SDS011;34673;52.808;17.856;2022-08-18T02:17:42;22.35;;;17.65;;
48853;SDS011;34673;52.808;17.856;2022-08-18T02:20:12;22.15;;;17.08;;
48853;SDS011;34673;52.808;17.856;2022-08-18T02:22:41;28.55;;;19.40;;
48853;SDS011;34673;52.808;17.856;2022-08-18T02:25:09;22.88;;;18.38;;
48853;SDS011;34673;52.808;17.856;2022-08-18T02:27:37;24.48;;;19.20;;
48853;SDS011;34673;52.808;17.856;2022-08-18T02:30:06;23.08;;;19.70;;
48853;SDS011;34673;52.808;17.856;2022-08-18T02:32:35;42.53;;;20.65;;
48853;SDS011;34673;52.808;17.856;2022-08-18T02:35:03;27.55;;;21.02;;
48853;SDS011;34673;52.808;17.856;2022-08-18T02:37:37;27.40;;;21.10;;
48853;SDS011;34673;52.808;17.856;2022-08-18T02:40:08;26.33;;;19.63;;
48853;SDS011;34673;52.808;17.856;2022-08-18T02:42:40;23.20;;;18.35;;
48853;SDS011;34673;52.808;17.856;2022-08-18T02:45:08;25.35;;;20.38;;
48853;SDS011;34673;52.808;17.856;2022-08-18T02:47:36;26.67;;;20.42;;
48853;SDS011;34673;52.808;17.856;2022-08-18T02:50:03;25.27;;;20.00;;
48853;SDS011;34673;52.808;17.856;2022-08-18T02:52:31;24.35;;;19.17;;
48853;SDS011;34673;52.808;17.856;2022-08-18T02:55:00;25.60;;;19.20;;
48853;SDS011;34673;52.808;17.856;2022-08-18T02:57:27;23.35;;;18.70;;
48853;SDS011;34673;52.808;17.856;2022-08-18T02:59:55;26.13;;;19.90;;
48853;SDS011;34673;52.808;17.856;2022-08-18T03:02:25;24.63;;;21.65;;
48853;SDS011;34673;52.808;17.856;2022-08-18T03:04:52;23.63;;;20.02;;
48853;SDS011;34673;52.808;17.856;2022-08-18T03:07:19;25.13;;;20.52;;
48853;SDS011;34673;52.808;17.856;2022-08-18T03:09:46;24.98;;;20.38;;
48853;SDS011;34673;52.808;17.856;2022-08-18T03:12:14;30.30;;;20.17;;
48853;SDS011;34673;52.808;17.856;2022-08-18T03:14:41;25.40;;;19.20;;
48853;SDS011;34673;52.808;17.856;2022-08-18T03:17:09;23.25;;;20.10;;
48853;SDS011;34673;52.808;17.856;2022-08-18T03:19:36;24.52;;;20.45;;
48853;SDS011;34673;52.808;17.856;2022-08-18T03:22:03;24.33;;;20.63;;
48853;SDS011;34673;52.808;17.856;2022-08-18T03:24:54;21.73;;;19.40;;
48853;SDS011;34673;52.808;17.856;2022-08-18T03:27:21;26.05;;;20.63;;
48853;SDS011;34673;52.808;17.856;2022-08-18T03:29:48;27.23;;;22.27;;
48853;SDS011;34673;52.808;17.856;2022-08-18T03:32:16;30.92;;;22.67;;
48853;SDS011;34673;52.808;17.856;2022-08-18T03:34:44;29.55;;;22.38;;
48853;SDS011;34673;52.808;17.856;2022-08-18T03:37:11;31.15;;;21.85;;
48853;SDS011;34673;52.808;17.856;2022-08-18T03:39:41;27.23;;;21.27;;
48853;SDS011;34673;52.808;17.856;2022-08-18T03:42:09;30.05;;;24.15;;
48853;SDS011;34673;52.808;17.856;2022-08-18T03:44:36;28.75;;;23.90;;
48853;SDS011;34673;52.808;17.856;2022-08-18T03:47:07;31.20;;;24.90;;
48853;SDS011;34673;52.808;17.856;2022-08-18T03:49:35;28.08;;;24.10;;
48853;SDS011;34673;52.808;17.856;2022-08-18T03:52:06;32.20;;;23.30;;
48853;SDS011;34673;52.808;17.856;2022-08-18T03:54:35;31.13;;;22.95;;
48853;SDS011;34673;52.808;17.856;2022-08-18T03:57:06;27.65;;;22.25;;
48853;SDS011;34673;52.808;17.856;2022-08-18T03:59:35;34.38;;;24.67;;
48853;SDS011;34673;52.808;17.856;2022-08-18T04:02:03;33.60;;;25.45;;
48853;SDS011;34673;52.808;17.856;2022-08-18T04:04:31;31.00;;;23.85;;
48853;SDS011;34673;52.808;17.856;2022-08-18T04:07:07;35.42;;;26.30;;
48853;SDS011;34673;52.808;17.856;2022-08-18T04:09:37;38.17;;;26.90;;
48853;SDS011;34673;52.808;17.856;2022-08-18T04:12:06;35.47;;;25.23;;
48853;SDS011;34673;52.808;17.856;2022-08-18T04:14:43;37.78;;;25.85;;
48853;SDS011;34673;52.808;17.856;2022-08-18T04:17:15;33.13;;;24.73;;
48853;SDS011;34673;52.808;17.856;2022-08-18T04:19:50;32.65;;;24.67;;
48853;SDS011;34673;52.808;17.856;2022-08-18T04:22:21;31.92;;;23.63;;
48853;SDS011;34673;52.808;17.856;2022-08-18T04:24:50;31.70;;;24.00;;
48853;SDS011;34673;52.808;17.856;2022-08-18T04:27:19;29.73;;;23.52;;
48853;SDS011;34673;52.808;17.856;2022-08-18T04:29:47;30.88;;;23.58;;
48853;SDS011;34673;52.808;17.856;2022-08-18T04:32:15;34.38;;;25.77;;
48853;SDS011;34673;52.808;17.856;2022-08-18T04:34:43;29.92;;;24.40;;
48853;SDS011;34673;52.808;17.856;2022-08-18T04:37:10;30.52;;;22.25;;
48853;SDS011;34673;52.808;17.856;2022-08-18T04:39:37;28.77;;;21.98;;
48853;SDS011;34673;52.808;17.856;2022-08-18T04:42:05;27.77;;;20.88;;
48853;SDS011;34673;52.808;17.856;2022-08-18T04:44:32;35.60;;;24.25;;
48853;SDS011;34673;52.808;17.856;2022-08-18T04:47:03;29.20;;;22.77;;
48853;SDS011;34673;52.808;17.856;2022-08-18T04:49:32;29.35;;;22.35;;
48853;SDS011;34673;52.808;17.856;2022-08-18T04:51:59;33.00;;;24.90;;
48853;SDS011;34673;52.808;17.856;2022-08-18T04:55:07;32.85;;;23.73;;
48853;SDS011;34673;52.808;17.856;2022-08-18T04:57:36;35.13;;;24.98;;
48853;SDS011;34673;52.808;17.856;2022-08-18T05:00:04;34.03;;;26.95;;
48853;SDS011;34673;52.808;17.856;2022-08-18T05:02:33;41.33;;;29.45;;
48853;SDS011;34673;52.808;17.856;2022-08-18T05:05:01;38.67;;;26.90;;
48853;SDS011;34673;52.808;17.856;2022-08-18T05:07:30;39.15;;;28.55;;
48853;SDS011;34673;52.808;17.856;2022-08-18T05:09:58;35.50;;;26.98;;
48853;SDS011;34673;52.808;17.856;2022-08-18T05:12:25;37.17;;;24.92;;
48853;SDS011;34673;52.808;17.856;2022-08-18T05:14:52;31.80;;;24.73;;
48853;SDS011;34673;52.808;17.856;2022-08-18T05:17:23;33.30;;;25.60;;
48853;SDS011;34673;52.808;17.856;2022-08-18T05:19:57;37.45;;;25.50;;
48853;SDS011;34673;52.808;17.856;2022-08-18T05:22:27;37.38;;;26.02;;
48853;SDS011;34673;52.808;17.856;2022-08-18T05:24:57;34.83;;;26.13;;
48853;SDS011;34673;52.808;17.856;2022-08-18T05:27:29;38.50;;;26.27;;
48853;SDS011;34673;52.808;17.856;2022-08-18T05:30:01;30.73;;;24.25;;
48853;SDS011;34673;52.808;17.856;2022-08-18T05:32:31;32.65;;;24.65;;
48853;SDS011;34673;52.808;17.856;2022-08-18T05:35:17;31.55;;;24.13;;
48853;SDS011;34673;52.808;17.856;2022-08-18T05:38:01;30.67;;;23.52;;
48853;SDS011;34673;52.808;17.856;2022-08-18T05:40:41;32.40;;;23.48;;
48853;SDS011;34673;52.808;17.856;2022-08-18T05:43:09;32.33;;;23.95;;
48853;SDS011;34673;52.808;17.856;2022-08-18T05:45:36;32.00;;;23.40;;
48853;SDS011;34673;52.808;17.856;2022-08-18T05:48:06;34.55;;;23.35;;
48853;SDS011;34673;52.808;17.856;2022-08-18T05:50:33;32.95;;;23.73;;
48853;SDS011;34673;52.808;17.856;2022-08-18T05:53:07;34.03;;;25.52;;
48853;SDS011;34673;52.808;17.856;2022-08-18T05:58:36;29.20;;;22.45;;
48853;SDS011;34673;52.808;17.856;2022-08-18T06:01:14;32.53;;;23.30;;
48853;SDS011;34673;52.808;17.856;2022-08-18T06:03:56;29.50;;;22.10;;
48853;SDS011;34673;52.808;17.856;2022-08-18T06:06:31;31.20;;;23.23;;
48853;SDS011;34673;52.808;17.856;2022-08-18T06:11:59;35.78;;;22.80;;
48853;SDS011;34673;52.808;17.856;2022-08-18T06:14:36;30.75;;;22.92;;
48853;SDS011;34673;52.808;17.856;2022-08-18T06:19:59;33.25;;;21.02;;
48853;SDS011;34673;52.808;17.856;2022-08-18T06:22:34;29.05;;;21.52;;
48853;SDS011;34673;52.808;17.856;2022-08-18T06:25:32;27.27;;;19.77;;
48853;SDS011;34673;52.808;17.856;2022-08-18T06:28:13;27.33;;;21.25;;
48853;SDS011;34673;52.808;17.856;2022-08-18T06:30:45;25.95;;;20.75;;
48853;SDS011;34673;52.808;17.856;2022-08-18T06:39:41;26.33;;;19.77;;
48853;SDS011;34673;52.808;17.856;2022-08-18T06:41:54;27.02;;;18.52;;
48853;SDS011;34673;52.808;17.856;2022-08-18T06:44:23;21.88;;;18.60;;
48853;SDS011;34673;52.808;17.856;2022-08-18T06:52:28;26.23;;;20.25;;
48853;SDS011;34673;52.808;17.856;2022-08-18T06:54:56;27.13;;;19.05;;
48853;SDS011;34673;52.808;17.856;2022-08-18T07:02:29;26.00;;;19.45;;
48853;SDS011;34673;52.808;17.856;2022-08-18T07:05:18;26.65;;;17.63;;
48853;SDS011;34673;52.808;17.856;2022-08-18T07:10:45;25.23;;;17.45;;
48853;SDS011;34673;52.808;17.856;2022-08-18T07:13:16;31.27;;;19.73;;
48853;SDS011;34673;52.808;17.856;2022-08-18T07:15:45;24.70;;;18.00;;
48853;SDS011;34673;52.808;17.856;2022-08-18T07:18:20;23.38;;;17.35;;
48853;SDS011;34673;52.808;17.856;2022-08-18T07:20:59;21.73;;;17.73;;
48853;SDS011;34673;52.808;17.856;2022-08-18T07:23:29;24.85;;;17.38;;
48853;SDS011;34673;52.808;17.856;2022-08-18T07:26:03;21.52;;;15.88;;
48853;SDS011;34673;52.808;17.856;2022-08-18T07:28:37;22.20;;;15.60;;
48853;SDS011;34673;52.808;17.856;2022-08-18T07:33:47;25.58;;;15.18;;
48853;SDS011;34673;52.808;17.856;2022-08-18T07:36:22;20.52;;;15.48;;
48853;SDS011;34673;52.808;17.856;2022-08-18T07:38:53;21.70;;;16.35;;
48853;SDS011;34673;52.808;17.856;2022-08-18T07:41:33;19.58;;;15.13;;
48853;SDS011;34673;52.808;17.856;2022-08-18T07:49:31;17.95;;;13.60;;
48853;SDS011;34673;52.808;17.856;2022-08-18T07:52:06;15.98;;;13.05;;
48853;SDS011;34673;52.808;17.856;2022-08-18T07:57:43;14.07;;;12.30;;
48853;SDS011;34673;52.808;17.856;2022-08-18T08:00:23;13.63;;;11.32;;
48853;SDS011;34673;52.808;17.856;2022-08-18T08:03:34;14.93;;;11.13;;
48853;SDS011;34673;52.808;17.856;2022-08-18T08:08:55;15.43;;;10.75;;
48853;SDS011;34673;52.808;17.856;2022-08-18T08:11:34;16.08;;;11.05;;
48853;SDS011;34673;52.808;17.856;2022-08-18T08:19:41;14.00;;;10.23;;
48853;SDS011;34673;52.808;17.856;2022-08-18T08:22:37;15.82;;;9.40;;
48853;SDS011;34673;52.808;17.856;2022-08-18T08:25:22;12.45;;;8.68;;
48853;SDS011;34673;52.808;17.856;2022-08-18T08:34:06;11.27;;;8.17;;
48853;SDS011;34673;52.808;17.856;2022-08-18T08:36:40;13.75;;;7.53;;
48853;SDS011;34673;52.808;17.856;2022-08-18T08:39:34;11.35;;;7.40;;
48853;SDS011;34673;52.808;17.856;2022-08-18T08:42:15;10.35;;;7.15;;
48853;SDS011;34673;52.808;17.856;2022-08-18T08:45:00;8.02;;;6.68;;
48853;SDS011;34673;52.808;17.856;2022-08-18T08:47:44;9.07;;;6.10;;
48853;SDS011;34673;52.808;17.856;2022-08-18T08:50:35;9.02;;;6.20;;
48853;SDS011;34673;52.808;17.856;2022-08-18T08:55:40;10.27;;;6.47;;
48853;SDS011;34673;52.808;17.856;2022-08-18T08:58:20;8.32;;;5.90;;
48853;SDS011;34673;52.808;17.856;2022-08-18T09:00:52;8.02;;;6.15;;
48853;SDS011;34673;52.808;17.856;2022-08-18T09:17:05;7.72;;;6.28;;
48853;SDS011;34673;52.808;17.856;2022-08-18T09:25:09;8.82;;;6.55;;
48853;SDS011;34673;52.808;17.856;2022-08-18T09:28:09;11.05;;;7.38;;
48853;SDS011;34673;52.808;17.856;2022-08-18T09:30:44;12.45;;;6.90;;
48853;SDS011;34673;52.808;17.856;2022-08-18T09:38:56;9.40;;;6.57;;
48853;SDS011;34673;52.808;17.856;2022-08-18T09:41:58;8.75;;;6.57;;
48853;SDS011;34673;52.808;17.856;2022-08-18T09:49:52;12.50;;;7.07;;
48853;SDS011;34673;52.808;17.856;2022-08-18T09:54:52;13.45;;;6.97;;
48853;SDS011;34673;52.808;17.856;2022-08-18T10:07:41;8.82;;;6.30;;
48853;SDS011;34673;52.808;17.856;2022-08-18T10:13:25;9.18;;;6.03;;
48853;SDS011;34673;52.808;17.856;2022-08-18T10:19:03;9.85;;;6.40;;
48853;SDS011;34673;52.808;17.856;2022-08-18T10:22:06;9.75;;;5.70;;
48853;SDS011;34673;52.808;17.856;2022-08-18T10:24:37;7.28;;;6.10;;
48853;SDS011;34673;52.808;17.856;2022-08-18T10:33:03;10.15;;;6.05;;
48853;SDS011;34673;52.808;17.856;2022-08-18T10:35:54;8.32;;;5.63;;
48853;SDS011;34673;52.808;17.856;2022-08-18T10:38:26;9.45;;;6.00;;
48853;SDS011;34673;52.808;17.856;2022-08-18T10:41:12;8.63;;;5.57;;
48853;SDS011;34673;52.808;17.856;2022-08-18T10:43:48;10.52;;;6.20;;
48853;SDS011;34673;52.808;17.856;2022-08-18T10:46:24;9.70;;;5.60;;
48853;SDS011;34673;52.808;17.856;2022-08-18T10:51:48;12.35;;;6.57;;
48853;SDS011;34673;52.808;17.856;2022-08-18T10:54:42;10.93;;;6.70;;
48853;SDS011;34673;52.808;17.856;2022-08-18T11:00:46;11.65;;;6.28;;
48853;SDS011;34673;52.808;17.856;2022-08-18T11:03:37;12.07;;;6.43;;
48853;SDS011;34673;52.808;17.856;2022-08-18T11:06:41;8.52;;;6.55;;
48853;SDS011;34673;52.808;17.856;2022-08-18T11:09:17;8.73;;;6.55;;
48853;SDS011;34673;52.808;17.856;2022-08-18T11:11:52;8.05;;;5.90;;
48853;SDS011;34673;52.808;17.856;2022-08-18T11:14:40;8.52;;;6.40;;
48853;SDS011;34673;52.808;17.856;2022-08-18T11:18:23;9.43;;;6.50;;
48853;SDS011;34673;52.808;17.856;2022-08-18T11:20:36;9.40;;;6.35;;
48853;SDS011;34673;52.808;17.856;2022-08-18T11:23:12;9.95;;;6.10;;
48853;SDS011;34673;52.808;17.856;2022-08-18T11:25:42;8.73;;;5.75;;
48853;SDS011;34673;52.808;17.856;2022-08-18T11:28:20;8.82;;;6.78;;
48853;SDS011;34673;52.808;17.856;2022-08-18T11:31:09;9.80;;;6.65;;
48853;SDS011;34673;52.808;17.856;2022-08-18T11:33:38;13.50;;;6.93;;
48853;SDS011;34673;52.808;17.856;2022-08-18T11:36:08;12.90;;;7.00;;
48853;SDS011;34673;52.808;17.856;2022-08-18T11:38:36;11.18;;;6.70;;
48853;SDS011;34673;52.808;17.856;2022-08-18T11:41:17;10.65;;;6.10;;
48853;SDS011;34673;52.808;17.856;2022-08-18T11:43:59;10.43;;;6.80;;
48853;SDS011;34673;52.808;17.856;2022-08-18T11:46:29;10.93;;;6.93;;
48853;SDS011;34673;52.808;17.856;2022-08-18T11:49:13;9.45;;;6.13;;
48853;SDS011;34673;52.808;17.856;2022-08-18T11:51:58;9.38;;;6.32;;
48853;SDS011;34673;52.808;17.856;2022-08-18T11:54:34;8.48;;;6.70;;
48853;SDS011;34673;52.808;17.856;2022-08-18T12:00:54;10.27;;;6.50;;
48853;SDS011;34673;52.808;17.856;2022-08-18T12:06:11;9.52;;;6.05;;
48853;SDS011;34673;52.808;17.856;2022-08-18T12:08:59;9.85;;;5.70;;
48853;SDS011;34673;52.808;17.856;2022-08-18T12:11:31;11.48;;;6.25;;
48853;SDS011;34673;52.808;17.856;2022-08-18T12:14:08;9.38;;;5.30;;
48853;SDS011;34673;52.808;17.856;2022-08-18T12:16:58;9.32;;;5.68;;
48853;SDS011;34673;52.808;17.856;2022-08-18T12:19:27;9.40;;;6.30;;
48853;SDS011;34673;52.808;17.856;2022-08-18T12:22:00;11.27;;;6.20;;
48853;SDS011;34673;52.808;17.856;2022-08-18T12:24:37;10.38;;;6.32;;
48853;SDS011;34673;52.808;17.856;2022-08-18T12:27:25;8.23;;;6.00;;
48853;SDS011;34673;52.808;17.856;2022-08-18T12:29:57;9.35;;;6.38;;
48853;SDS011;34673;52.808;17.856;2022-08-18T12:32:31;11.68;;;6.18;;
48853;SDS011;34673;52.808;17.856;2022-08-18T12:35:15;8.45;;;5.97;;
48853;SDS011;34673;52.808;17.856;2022-08-18T12:37:48;11.00;;;6.40;;
48853;SDS011;34673;52.808;17.856;2022-08-18T12:40:35;10.98;;;6.10;;
48853;SDS011;34673;52.808;17.856;2022-08-18T12:43:04;9.35;;;6.55;;
48853;SDS011;34673;52.808;17.856;2022-08-18T12:45:33;8.07;;;6.07;;
48853;SDS011;34673;52.808;17.856;2022-08-18T12:48:03;12.63;;;6.30;;
48853;SDS011;34673;52.808;17.856;2022-08-18T12:50:33;8.43;;;5.20;;
48853;SDS011;34673;52.808;17.856;2022-08-18T12:53:23;8.02;;;6.03;;
48853;SDS011;34673;52.808;17.856;2022-08-18T12:56:04;7.95;;;6.18;;
48853;SDS011;34673;52.808;17.856;2022-08-18T12:58:53;9.93;;;5.83;;
48853;SDS011;34673;52.808;17.856;2022-08-18T13:01:21;7.95;;;5.57;;
48853;SDS011;34673;52.808;17.856;2022-08-18T13:03:51;10.32;;;6.10;;
48853;SDS011;34673;52.808;17.856;2022-08-18T13:06:40;7.50;;;5.72;;
48853;SDS011;34673;52.808;17.856;2022-08-18T13:09:28;7.18;;;5.72;;
48853;SDS011;34673;52.808;17.856;2022-08-18T13:12:13;10.23;;;6.07;;
48853;SDS011;34673;52.808;17.856;2022-08-18T13:14:42;9.37;;;5.50;;
48853;SDS011;34673;52.808;17.856;2022-08-18T13:17:12;9.45;;;5.88;;
48853;SDS011;34673;52.808;17.856;2022-08-18T13:22:35;10.75;;;5.75;;
48853;SDS011;34673;52.808;17.856;2022-08-18T13:25:06;9.07;;;6.43;;
48853;SDS011;34673;52.808;17.856;2022-08-18T13:27:59;9.70;;;5.80;;
48853;SDS011;34673;52.808;17.856;2022-08-18T13:30:27;11.35;;;5.78;;
48853;SDS011;34673;52.808;17.856;2022-08-18T13:32:59;9.55;;;6.03;;
48853;SDS011;34673;52.808;17.856;2022-08-18T13:35:47;8.60;;;5.95;;
48853;SDS011;34673;52.808;17.856;2022-08-18T13:38:20;8.40;;;6.00;;
48853;SDS011;34673;52.808;17.856;2022-08-18T13:40:53;11.30;;;6.55;;
48853;SDS011;34673;52.808;17.856;2022-08-18T13:43:31;7.70;;;6.13;;
48853;SDS011;34673;52.808;17.856;2022-08-18T13:46:03;9.68;;;5.80;;
48853;SDS011;34673;52.808;17.856;2022-08-18T13:48:34;7.85;;;6.18;;
48853;SDS011;34673;52.808;17.856;2022-08-18T13:51:02;7.82;;;6.22;;
48853;SDS011;34673;52.808;17.856;2022-08-18T13:53:34;9.70;;;6.65;;
48853;SDS011;34673;52.808;17.856;2022-08-18T13:56:23;11.48;;;6.50;;
48853;SDS011;34673;52.808;17.856;2022-08-18T13:58:57;9.25;;;6.53;;
48853;SDS011;34673;52.808;17.856;2022-08-18T14:01:24;9.35;;;6.00;;
48853;SDS011;34673;52.808;17.856;2022-08-18T14:04:12;8.13;;;6.53;;
48853;SDS011;34673;52.808;17.856;2022-08-18T14:06:46;14.45;;;7.18;;
48853;SDS011;34673;52.808;17.856;2022-08-18T14:09:23;8.38;;;5.75;;
48853;SDS011;34673;52.808;17.856;2022-08-18T14:12:06;9.93;;;6.32;;
48853;SDS011;34673;52.808;17.856;2022-08-18T14:14:50;9.85;;;6.20;;
48853;SDS011;34673;52.808;17.856;2022-08-18T14:17:22;11.30;;;6.00;;
48853;SDS011;34673;52.808;17.856;2022-08-18T14:19:51;11.95;;;6.38;;
48853;SDS011;34673;52.808;17.856;2022-08-18T14:22:50;9.25;;;6.32;;
48853;SDS011;34673;52.808;17.856;2022-08-18T14:25:36;11.35;;;6.90;;
48853;SDS011;34673;52.808;17.856;2022-08-18T14:28:25;8.93;;;6.57;;
48853;SDS011;34673;52.808;17.856;2022-08-18T14:30:55;10.60;;;6.82;;
48853;SDS011;34673;52.808;17.856;2022-08-18T14:33:25;8.32;;;6.32;;
48853;SDS011;34673;52.808;17.856;2022-08-18T14:36:14;10.38;;;6.40;;
48853;SDS011;34673;52.808;17.856;2022-08-18T14:38:43;9.63;;;6.75;;
48853;SDS011;34673;52.808;17.856;2022-08-18T14:41:11;8.38;;;5.95;;
48853;SDS011;34673;52.808;17.856;2022-08-18T14:43:40;8.47;;;5.97;;
48853;SDS011;34673;52.808;17.856;2022-08-18T14:46:29;10.48;;;6.57;;
48853;SDS011;34673;52.808;17.856;2022-08-18T14:48:58;9.68;;;6.60;;
48853;SDS011;34673;52.808;17.856;2022-08-18T14:51:29;12.80;;;6.57;;
48853;SDS011;34673;52.808;17.856;2022-08-18T14:53:59;9.57;;;6.70;;
48853;SDS011;34673;52.808;17.856;2022-08-18T14:56:27;10.82;;;6.72;;
48853;SDS011;34673;52.808;17.856;2022-08-18T14:59:02;12.98;;;7.25;;
48853;SDS011;34673;52.808;17.856;2022-08-18T15:01:36;12.07;;;6.70;;
48853;SDS011;34673;52.808;17.856;2022-08-18T15:04:08;12.20;;;6.68;;
48853;SDS011;34673;52.808;17.856;2022-08-18T15:06:45;11.98;;;7.72;;
48853;SDS011;34673;52.808;17.856;2022-08-18T15:09:23;12.20;;;6.90;;
48853;SDS011;34673;52.808;17.856;2022-08-18T15:11:52;11.20;;;6.88;;
48853;SDS011;34673;52.808;17.856;2022-08-18T15:14:22;9.65;;;6.55;;
48853;SDS011;34673;52.808;17.856;2022-08-18T15:17:00;9.90;;;7.07;;
48853;SDS011;34673;52.808;17.856;2022-08-18T15:19:40;12.90;;;7.20;;
48853;SDS011;34673;52.808;17.856;2022-08-18T15:22:26;9.90;;;6.72;;
48853;SDS011;34673;52.808;17.856;2022-08-18T15:25:13;12.85;;;7.25;;
48853;SDS011;34673;52.808;17.856;2022-08-18T15:27:59;8.45;;;7.10;;
48853;SDS011;34673;52.808;17.856;2022-08-18T15:30:27;8.90;;;7.00;;
48853;SDS011;34673;52.808;17.856;2022-08-18T15:32:54;11.13;;;6.82;;
48853;SDS011;34673;52.808;17.856;2022-08-18T15:35:29;7.55;;;6.25;;
48853;SDS011;34673;52.808;17.856;2022-08-18T15:37:57;8.93;;;6.35;;
48853;SDS011;34673;52.808;17.856;2022-08-18T15:40:30;10.35;;;7.43;;
48853;SDS011;34673;52.808;17.856;2022-08-18T15:43:07;11.63;;;6.50;;
48853;SDS011;34673;52.808;17.856;2022-08-18T15:45:37;9.30;;;6.40;;
48853;SDS011;34673;52.808;17.856;2022-08-18T15:48:22;8.52;;;6.63;;
48853;SDS011;34673;52.808;17.856;2022-08-18T15:50:50;10.07;;;7.03;;
48853;SDS011;34673;52.808;17.856;2022-08-18T15:53:20;8.15;;;6.30;;
48853;SDS011;34673;52.808;17.856;2022-08-18T15:55:49;8.70;;;6.43;;
48853;SDS011;34673;52.808;17.856;2022-08-18T15:58:16;9.00;;;6.20;;
48853;SDS011;34673;52.808;17.856;2022-08-18T16:00:48;8.95;;;6.32;;
48853;SDS011;34673;52.808;17.856;2022-08-18T16:03:16;9.82;;;6.93;;
48853;SDS011;34673;52.808;17.856;2022-08-18T16:05:51;8.65;;;6.65;;
48853;SDS011;34673;52.808;17.856;2022-08-18T16:08:20;8.68;;;5.97;;
48853;SDS011;34673;52.808;17.856;2022-08-18T16:10:49;7.90;;;6.32;;
48853;SDS011;34673;52.808;17.856;2022-08-18T16:13:16;8.75;;;5.80;;
48853;SDS011;34673;52.808;17.856;2022-08-18T16:15:44;9.02;;;6.70;;
48853;SDS011;34673;52.808;17.856;2022-08-18T16:18:14;10.05;;;6.40;;
48853;SDS011;34673;52.808;17.856;2022-08-18T16:20:43;11.23;;;6.53;;
48853;SDS011;34673;52.808;17.856;2022-08-18T16:23:11;12.02;;;6.50;;
48853;SDS011;34673;52.808;17.856;2022-08-18T16:25:40;12.95;;;7.30;;
48853;SDS011;34673;52.808;17.856;2022-08-18T16:28:09;9.38;;;6.53;;
48853;SDS011;34673;52.808;17.856;2022-08-18T16:30:39;12.73;;;6.88;;
48853;SDS011;34673;52.808;17.856;2022-08-18T16:33:07;12.85;;;6.80;;
48853;SDS011;34673;52.808;17.856;2022-08-18T16:35:35;11.82;;;6.82;;
48853;SDS011;34673;52.808;17.856;2022-08-18T16:38:06;9.20;;;6.97;;
48853;SDS011;34673;52.808;17.856;2022-08-18T16:40:35;8.93;;;6.68;;
48853;SDS011;34673;52.808;17.856;2022-08-18T16:43:03;10.85;;;7.55;;
48853;SDS011;34673;52.808;17.856;2022-08-18T16:45:31;10.77;;;7.00;;
48853;SDS011;34673;52.808;17.856;2022-08-18T16:48:01;9.40;;;6.55;;
48853;SDS011;34673;52.808;17.856;2022-08-18T16:50:29;10.63;;;6.65;;
48853;SDS011;34673;52.808;17.856;2022-08-18T16:52:56;10.85;;;6.88;;
48853;SDS011;34673;52.808;17.856;2022-08-18T16:55:24;8.10;;;6.88;;
48853;SDS011;34673;52.808;17.856;2022-08-18T16:57:52;7.85;;;6.10;;
48853;SDS011;34673;52.808;17.856;2022-08-18T17:00:41;11.68;;;6.65;;
48853;SDS011;34673;52.808;17.856;2022-08-18T17:03:27;10.50;;;6.55;;
48853;SDS011;34673;52.808;17.856;2022-08-18T17:06:15;13.35;;;6.75;;
48853;SDS011;34673;52.808;17.856;2022-08-18T17:08:45;9.48;;;6.53;;